createdAt,value
2023-03-05T00:10:27.756Z,19.50
2023-03-05T00:11:27.826Z,19.50
2023-03-05T00:12:27.888Z,19.49
2023-03-05T00:13:27.969Z,19.50
2023-03-05T00:14:28.126Z,19.50
2023-03-05T00:15:28.118Z,19.49
2023-03-05T00:16:28.187Z,19.49
2023-03-05T00:17:28.259Z,19.49
2023-03-05T00:18:28.329Z,19.48
2023-03-05T00:19:28.405Z,19.49
2023-03-05T00:20:28.463Z,19.49
2023-03-05T00:21:28.548Z,19.49
2023-03-05T00:22:28.706Z,19.48
2023-03-05T00:23:28.683Z,19.48
2023-03-05T00:24:28.763Z,19.49
2023-03-05T00:25:28.865Z,19.47
2023-03-05T00:26:28.930Z,19.47
2023-03-05T00:27:29.683Z,19.47
2023-03-05T00:28:29.070Z,19.47
2023-03-05T00:29:31.574Z,19.48
2023-03-05T00:30:29.296Z,19.47
2023-03-05T00:31:29.408Z,19.47
2023-03-05T00:32:29.514Z,19.46
2023-03-05T00:33:29.509Z,19.47
2023-03-05T00:34:29.587Z,19.46
2023-03-05T00:35:29.685Z,19.46
2023-03-05T00:36:29.754Z,19.45
2023-03-05T00:37:29.850Z,19.45
2023-03-05T00:38:29.895Z,19.44
2023-03-05T00:39:29.970Z,19.44
2023-03-05T00:40:30.158Z,19.44
2023-03-05T00:41:30.705Z,19.44
2023-03-05T00:42:30.205Z,19.44
2023-03-05T00:43:30.382Z,19.44
2023-03-05T00:44:30.370Z,19.44
2023-03-05T00:45:30.444Z,19.43
2023-03-05T00:46:30.600Z,19.43
2023-03-05T00:47:31.185Z,19.43
2023-03-05T00:48:30.666Z,19.43
2023-03-05T00:49:30.744Z,19.43
2023-03-05T00:50:30.820Z,19.43
2023-03-05T00:51:30.897Z,19.43
2023-03-05T00:52:30.970Z,19.43
2023-03-05T00:53:31.041Z,19.43
2023-03-05T00:54:31.118Z,19.42
2023-03-05T00:55:31.217Z,19.42
2023-03-05T00:56:31.279Z,19.42
2023-03-05T00:57:31.349Z,19.42
2023-03-05T00:58:31.431Z,19.41
2023-03-05T00:59:31.520Z,19.41
2023-03-05T01:00:31.622Z,19.41
2023-03-05T01:01:32.231Z,19.41
2023-03-05T01:02:33.811Z,19.41
2023-03-05T03:07:37.745Z,19.18
2023-03-05T03:08:37.767Z,19.18
2023-03-05T03:09:37.806Z,19.17
2023-03-05T03:10:37.866Z,19.17
2023-03-05T03:11:37.954Z,19.16
2023-03-05T03:12:38.016Z,19.16
2023-03-05T03:13:38.052Z,19.16
2023-03-05T03:14:38.077Z,19.16
2023-03-05T03:15:38.104Z,19.16
2023-03-05T03:16:38.199Z,19.14
2023-03-05T03:17:38.168Z,19.14
2023-03-05T03:18:38.238Z,19.15
2023-03-05T03:19:38.285Z,19.14
2023-03-05T03:20:38.327Z,19.14
2023-03-05T03:21:38.384Z,19.15
2023-03-05T03:22:38.424Z,19.13
2023-03-05T03:23:38.473Z,19.14
2023-03-05T03:24:38.482Z,19.12
2023-03-05T03:25:38.583Z,19.13
2023-03-05T03:26:38.563Z,19.13
2023-03-05T03:27:38.645Z,19.13
2023-03-05T03:28:38.665Z,19.13
2023-03-05T03:29:38.781Z,19.12
2023-03-05T03:30:38.783Z,19.12
2023-03-05T03:31:39.734Z,19.12
2023-03-05T03:32:38.835Z,19.12
2023-03-05T03:33:38.877Z,19.11
2023-03-05T03:34:38.911Z,19.11
2023-03-05T03:35:38.995Z,19.11
2023-03-05T03:36:39.020Z,19.11
2023-03-05T03:37:39.076Z,19.11
2023-03-05T03:38:39.142Z,19.10
2023-03-05T03:39:39.194Z,19.10
2023-03-05T04:22:40.625Z,19.01
2023-03-05T04:23:40.655Z,19.02
2023-03-05T04:25:40.701Z,19.00
2023-03-05T04:26:40.726Z,19.01
2023-03-05T04:27:40.750Z,19.00
2023-03-05T04:28:40.775Z,19.00
2023-03-05T04:29:40.793Z,19.00
2023-03-05T04:30:40.830Z,18.99
2023-03-05T04:31:40.856Z,18.99
2023-03-05T04:32:40.875Z,18.99
2023-03-05T04:33:40.913Z,18.99
2023-03-05T04:34:40.914Z,18.98
2023-03-05T04:35:41.023Z,18.98
2023-03-05T04:36:40.959Z,18.98
2023-03-05T04:37:40.986Z,18.97
2023-03-05T04:38:41.011Z,18.97
2023-03-05T04:39:41.028Z,18.98
2023-03-05T04:40:41.056Z,18.98
2023-03-05T04:41:41.094Z,18.97
2023-03-05T04:42:41.103Z,18.96
2023-03-05T04:43:41.129Z,18.97
2023-03-05T04:44:41.155Z,18.96
2023-03-05T04:45:41.176Z,18.96
2023-03-05T04:46:41.320Z,18.96
2023-03-05T04:47:41.282Z,18.95
2023-03-05T04:48:41.250Z,18.95
2023-03-05T04:49:41.271Z,18.94
2023-03-05T04:50:41.297Z,18.95
2023-03-05T04:51:41.315Z,18.95
2023-03-05T04:52:41.328Z,18.95
2023-03-05T04:53:41.357Z,18.94
2023-03-05T04:54:41.385Z,18.95
2023-03-05T04:55:41.415Z,18.94
2023-03-05T04:56:41.437Z,18.95
2023-03-05T04:57:41.457Z,18.94
2023-03-05T04:58:41.482Z,18.94
2023-03-05T04:59:41.510Z,18.93
2023-03-05T05:00:41.543Z,18.93
2023-03-05T05:01:41.639Z,18.94
2023-03-05T05:02:41.652Z,18.94
2023-03-05T05:03:41.618Z,18.93
2023-03-05T05:04:41.698Z,18.92
2023-03-05T05:05:41.670Z,18.91
2023-03-05T05:06:41.707Z,18.91
2023-03-05T05:07:41.728Z,18.92
2023-03-05T05:08:41.755Z,18.91
2023-03-05T07:32:47.846Z,18.72
2023-03-05T07:35:48.359Z,18.72
2023-03-05T07:37:47.711Z,18.72
2023-03-05T07:38:47.768Z,18.72
2023-03-05T07:39:47.811Z,18.72
2023-03-05T07:40:47.854Z,18.72
2023-03-05T07:41:47.899Z,18.72
2023-03-05T07:42:47.945Z,18.72
2023-03-05T07:43:47.993Z,18.71
2023-03-05T07:44:48.050Z,18.70
2023-03-05T07:45:48.159Z,18.71
2023-03-05T07:46:48.164Z,18.71
2023-03-05T07:47:48.200Z,18.71
2023-03-05T07:48:48.260Z,18.71
2023-03-05T07:49:48.945Z,18.72
2023-03-05T07:50:48.403Z,18.71
2023-03-05T07:51:48.398Z,18.72
2023-03-05T07:52:48.455Z,18.71
2023-03-05T07:53:48.505Z,18.71
2023-03-05T07:54:48.538Z,18.71
2023-03-05T07:55:48.638Z,18.71
2023-03-05T07:56:48.638Z,18.72
2023-03-05T07:57:48.683Z,18.71
2023-03-05T07:58:48.735Z,18.72
2023-03-05T07:59:48.796Z,18.72
2023-03-05T08:00:48.840Z,18.71
2023-03-05T08:01:48.895Z,18.72
2023-03-05T08:02:48.988Z,18.71
2023-03-05T08:03:49.013Z,18.71
2023-03-05T08:04:49.039Z,18.72
2023-03-05T08:05:49.091Z,18.72
2023-03-05T08:06:49.128Z,18.72
2023-03-05T08:07:49.178Z,18.72
2023-03-05T08:08:49.231Z,18.72
2023-03-05T08:09:49.843Z,18.72
2023-03-05T08:10:49.325Z,18.72
2023-03-05T08:11:49.372Z,18.72
2023-03-05T08:12:49.425Z,18.72
2023-03-05T08:13:49.461Z,18.72
2023-03-05T08:14:49.509Z,18.72
2023-03-05T08:15:49.581Z,18.72
2023-03-05T08:16:49.590Z,18.72
2023-03-05T08:17:49.688Z,18.72
2023-03-05T08:18:49.700Z,18.72
2023-03-05T08:19:49.723Z,18.71
2023-03-05T08:20:49.840Z,18.72
2023-03-05T08:21:49.817Z,18.72
2023-03-05T08:22:49.866Z,18.72
2023-03-05T08:23:49.914Z,18.72
2023-03-05T08:24:49.952Z,18.72
2023-03-05T08:25:49.997Z,18.72
2023-03-05T08:26:50.042Z,18.72
2023-03-05T08:27:50.093Z,18.71
2023-03-05T08:28:50.136Z,18.71
2023-03-05T08:29:50.169Z,18.72
2023-03-05T08:30:50.371Z,18.71
2023-03-05T11:07:57.938Z,20.38
2023-03-05T11:20:57.723Z,20.87
2023-03-05T11:21:59.803Z,20.90
2023-03-05T11:22:57.789Z,20.92
2023-03-05T11:23:57.806Z,20.94
2023-03-05T11:24:57.852Z,20.97
2023-03-05T11:25:57.881Z,20.98
2023-03-05T11:26:57.911Z,20.98
2023-03-05T11:27:57.928Z,20.99
2023-03-05T11:28:57.976Z,20.99
2023-03-05T11:29:57.989Z,20.98
2023-03-05T11:30:58.114Z,20.97
2023-03-05T11:31:58.078Z,20.95
2023-03-05T11:32:58.064Z,20.93
2023-03-05T11:33:58.094Z,20.92
2023-03-05T11:34:58.180Z,20.92
2023-03-05T11:35:58.223Z,20.91
2023-03-05T11:36:58.160Z,20.93
2023-03-05T11:37:58.189Z,20.93
2023-03-05T11:38:58.221Z,20.96
2023-03-05T11:39:58.225Z,20.99
2023-03-05T11:40:58.250Z,21.02
2023-03-05T11:41:58.266Z,21.06
2023-03-05T11:42:58.273Z,21.10
2023-03-05T11:43:58.288Z,21.13
2023-03-05T11:44:58.346Z,21.15
2023-03-05T11:45:58.323Z,21.17
2023-03-05T11:46:58.303Z,21.20
2023-03-05T11:47:58.300Z,21.22
2023-03-05T11:48:58.292Z,21.24
2023-03-05T11:49:58.439Z,21.25
2023-03-05T11:50:58.326Z,21.27
2023-03-05T11:51:58.263Z,21.29
2023-03-05T11:52:58.251Z,21.29
2023-03-05T11:53:58.245Z,21.31
2023-03-05T11:54:58.228Z,21.32
2023-03-05T11:55:58.211Z,21.34
2023-03-05T11:56:58.212Z,21.35
2023-03-05T11:57:58.196Z,21.35
2023-03-05T11:58:58.200Z,21.36
2023-03-05T11:59:58.192Z,21.37
2023-03-05T12:00:58.202Z,21.38
2023-03-05T12:01:58.225Z,21.39
2023-03-05T12:02:58.269Z,21.41
2023-03-05T12:03:58.261Z,21.42
2023-03-05T12:04:58.252Z,21.42
2023-03-05T12:05:58.325Z,21.43
2023-03-05T12:06:58.294Z,21.45
2023-03-05T12:07:58.333Z,21.46
2023-03-05T12:08:58.388Z,21.49
2023-03-05T12:09:58.411Z,21.50
2023-03-05T12:10:58.445Z,21.52
2023-03-05T12:11:58.487Z,21.53
2023-03-05T12:12:58.545Z,21.54
2023-03-05T12:13:58.591Z,21.56
2023-03-05T12:14:58.631Z,21.57
2023-03-05T12:15:58.683Z,21.59
2023-03-05T12:16:58.722Z,21.60
2023-03-05T12:17:58.754Z,21.62
2023-03-05T12:18:58.793Z,21.63
2023-03-05T12:19:58.841Z,21.65
2023-03-05T12:20:58.879Z,21.67
2023-03-05T12:58:59.151Z,22.26
2023-03-05T13:00:59.302Z,22.28
2023-03-05T13:33:58.666Z,22.47
2023-03-05T13:52:59.477Z,22.49
2023-03-05T13:53:59.061Z,22.49
2023-03-05T13:54:59.084Z,22.50
2023-03-05T13:55:59.122Z,22.50
2023-03-05T13:56:59.148Z,22.50
2023-03-05T13:57:59.163Z,22.50
2023-03-05T13:58:59.174Z,22.51
2023-03-05T13:59:59.192Z,22.51
2023-03-05T14:00:59.237Z,22.51
2023-03-05T14:01:59.237Z,22.51
2023-03-05T14:02:59.754Z,22.50
2023-03-05T14:03:59.271Z,22.50
2023-03-05T15:48:00.419Z,21.06
2023-03-05T15:49:00.400Z,21.05
2023-03-05T15:50:00.368Z,21.02
2023-03-05T15:51:00.364Z,21.01
2023-03-05T15:52:00.361Z,21.00
2023-03-05T15:53:00.351Z,20.99
2023-03-05T15:55:00.323Z,20.94
2023-03-05T15:56:00.317Z,20.94
2023-03-05T15:57:00.299Z,20.93
2023-03-05T15:58:00.293Z,20.91
2023-03-05T15:59:00.285Z,20.89
2023-03-05T16:00:00.547Z,20.88
2023-03-05T16:01:00.258Z,20.86
2023-03-05T16:02:00.300Z,20.85
2023-03-05T16:03:00.267Z,20.83
2023-03-05T16:04:00.226Z,20.82
2023-03-05T16:05:00.292Z,20.81
2023-03-05T16:06:00.541Z,20.80
2023-03-05T16:07:00.544Z,20.79
2023-03-05T16:08:00.187Z,20.77
2023-03-05T16:09:00.189Z,20.77
2023-03-05T16:10:00.266Z,20.75
2023-03-05T16:32:01.064Z,20.50
2023-03-05T16:33:01.098Z,20.48
2023-03-05T16:34:01.148Z,20.48
2023-03-05T16:35:01.206Z,20.46
2023-03-05T16:36:01.296Z,20.46
2023-03-05T16:37:01.310Z,20.45
2023-03-05T16:38:01.440Z,20.43
2023-03-05T16:39:01.439Z,20.42
2023-03-05T16:40:01.553Z,20.41
2023-03-05T16:41:08.844Z,20.40
2023-03-05T16:42:02.573Z,20.39
2023-03-05T16:43:01.551Z,20.38
2023-03-05T16:44:01.554Z,20.37
2023-03-05T16:45:01.548Z,20.37
2023-03-05T16:46:01.572Z,20.36
2023-03-05T16:47:01.602Z,20.35
2023-03-05T16:48:01.539Z,20.34
2023-03-05T16:49:01.529Z,20.33
2023-03-05T16:50:01.532Z,20.32
2023-03-05T16:51:01.525Z,20.32
2023-03-05T16:52:12.471Z,20.30
2023-03-05T16:53:02.581Z,20.30
2023-03-05T16:54:01.587Z,20.30
2023-03-05T16:55:01.579Z,20.29
2023-03-05T16:56:03.199Z,20.28
2023-03-05T16:57:01.635Z,20.26
2023-03-05T16:58:01.664Z,20.26
2023-03-05T16:59:01.725Z,20.24
2023-03-05T17:00:01.842Z,20.24
2023-03-05T17:01:01.852Z,20.22
2023-03-05T17:02:01.888Z,20.21
2023-03-05T17:03:01.915Z,20.21
2023-03-05T17:04:02.089Z,20.21
2023-03-05T17:05:01.963Z,20.20
2023-03-05T17:06:01.992Z,20.19
2023-03-05T17:07:02.019Z,20.18
2023-03-05T17:08:02.060Z,20.17
2023-03-05T17:09:02.053Z,20.17
2023-03-05T17:10:02.151Z,20.16
2023-03-05T17:11:02.128Z,20.15
2023-03-05T17:12:02.136Z,20.14
2023-03-05T17:13:02.181Z,20.13
2023-03-05T17:14:02.210Z,20.12
2023-03-05T17:15:02.237Z,20.11
2023-03-05T17:16:02.310Z,20.11
2023-03-05T17:17:02.320Z,20.10
2023-03-05T17:18:02.314Z,20.09
2023-03-05T17:19:02.361Z,20.09
2023-03-05T17:20:02.488Z,20.08
2023-03-05T17:21:02.427Z,20.07
2023-03-05T17:22:02.549Z,20.07
2023-03-05T17:23:02.507Z,20.06
2023-03-05T17:24:02.541Z,20.06
2023-03-05T17:25:02.562Z,20.05
2023-03-05T17:26:02.580Z,20.05
2023-03-05T17:27:02.685Z,20.05
2023-03-05T17:28:02.628Z,20.03
2023-03-05T17:29:02.655Z,20.02
2023-03-05T17:30:02.674Z,20.02
2023-03-05T17:31:02.699Z,20.01
2023-03-05T17:32:02.785Z,20.02
2023-03-05T17:33:02.757Z,20.01
2023-03-05T17:34:02.721Z,20.00
2023-03-05T17:35:05.411Z,19.99
2023-03-05T17:36:02.720Z,19.99
2023-03-05T17:37:02.728Z,19.98
2023-03-05T17:38:02.721Z,19.98
2023-03-05T17:39:02.734Z,19.97
2023-03-05T17:40:02.724Z,19.96
2023-03-05T17:41:02.779Z,19.96
2023-03-05T17:42:02.725Z,19.95
2023-03-05T17:43:02.725Z,19.94
2023-03-05T17:44:02.805Z,19.94
2023-03-05T17:45:02.719Z,19.93
2023-03-05T17:46:02.733Z,19.92
2023-03-05T17:47:03.637Z,19.91
2023-03-05T17:48:02.740Z,19.90
2023-03-05T17:49:02.733Z,19.90
2023-03-05T17:50:02.736Z,19.90
2023-03-05T20:26:07.770Z,19.43
2023-03-05T20:27:07.850Z,19.42
2023-03-05T20:28:07.901Z,19.43
2023-03-05T20:29:08.035Z,19.43
2023-03-05T20:30:08.083Z,19.43
2023-03-05T20:31:08.134Z,19.42
2023-03-05T20:32:08.262Z,19.43
2023-03-05T20:33:08.239Z,19.42
2023-03-05T20:34:08.303Z,19.42
2023-03-05T20:35:08.371Z,19.42
2023-03-05T20:36:08.451Z,19.42
2023-03-05T20:37:08.513Z,19.41
2023-03-05T20:38:08.704Z,19.41
2023-03-05T20:39:08.656Z,19.41
2023-03-05T20:40:08.722Z,19.41
2023-03-05T20:41:08.814Z,19.41
2023-03-05T20:42:08.878Z,19.40
2023-03-05T20:43:08.936Z,19.40
2023-03-05T20:44:09.012Z,19.40
2023-03-05T20:45:09.109Z,19.40
2023-03-05T20:46:09.162Z,19.40
2023-03-05T20:47:09.287Z,19.39
2023-03-05T20:48:09.326Z,19.40
2023-03-05T20:49:09.402Z,19.39
2023-03-05T20:50:09.473Z,19.39
2023-03-05T20:51:09.551Z,19.39
2023-03-05T20:52:09.620Z,19.39
2023-03-05T20:53:09.697Z,19.39
2023-03-05T20:54:09.770Z,19.39
2023-03-05T20:55:09.844Z,19.38
2023-03-05T20:56:09.933Z,19.38
2023-03-05T20:57:10.026Z,19.38
2023-03-05T20:58:10.066Z,19.37
2023-03-05T20:59:10.152Z,19.37
2023-03-05T21:00:10.298Z,19.37
2023-03-05T21:01:10.393Z,19.37
2023-03-05T21:02:10.538Z,19.37
2023-03-05T21:03:10.468Z,19.36
2023-03-05T21:04:10.650Z,19.36
2023-03-05T21:05:10.629Z,19.36
2023-03-05T21:06:10.708Z,19.37
2023-03-05T21:07:10.789Z,19.36
2023-03-05T21:08:10.868Z,19.36
2023-03-05T21:09:10.944Z,19.35
2023-03-05T21:10:11.029Z,19.35
2023-03-05T21:11:11.101Z,19.35
2023-03-05T21:12:11.181Z,19.34
2023-03-05T21:13:11.279Z,19.35
2023-03-05T21:14:11.353Z,19.35
2023-03-05T21:15:11.437Z,19.34
2023-03-05T21:16:11.559Z,19.34
2023-03-05T21:17:11.620Z,19.34
2023-03-05T21:18:11.696Z,19.33
2023-03-05T21:19:11.792Z,19.34
2023-03-05T21:20:11.872Z,19.34
2023-03-05T21:21:11.970Z,19.33
2023-03-05T21:22:12.049Z,19.33
2023-03-05T21:23:12.125Z,19.33
2023-03-05T21:24:12.202Z,19.33
2023-03-05T21:25:12.310Z,19.33
2023-03-05T21:26:13.501Z,19.33
2023-03-05T21:27:12.460Z,19.33
2023-03-05T21:28:12.569Z,19.32
2023-03-05T21:29:12.629Z,19.32
2023-03-05T21:30:12.685Z,19.33
2023-03-05T21:31:12.816Z,19.32
2023-03-05T21:32:12.882Z,19.32
2023-03-05T21:33:12.917Z,19.32
2023-03-05T21:34:13.009Z,19.32
2023-03-05T21:35:13.095Z,19.32
2023-03-05T21:36:13.189Z,19.32
2023-03-05T21:37:13.258Z,19.31
2023-03-05T21:38:13.333Z,19.31
2023-03-05T21:39:13.418Z,19.31
2023-03-05T21:40:13.502Z,19.30
2023-03-05T21:41:13.587Z,19.31
2023-03-05T21:42:13.677Z,19.31
2023-03-05T21:43:13.753Z,19.30
2023-03-05T21:44:13.827Z,19.30
2023-03-05T21:45:13.909Z,19.30
2023-03-05T21:46:14.113Z,19.30
2023-03-05T21:47:14.075Z,19.30
2023-03-05T21:48:14.176Z,19.29
2023-03-05T21:49:14.246Z,19.29
2023-03-05T21:50:14.341Z,19.29
2023-03-05T21:51:14.409Z,19.30
2023-03-05T21:52:14.498Z,19.29
2023-03-05T21:53:14.591Z,19.29
2023-03-05T21:54:14.659Z,19.28
2023-03-05T21:55:14.752Z,19.28
2023-03-05T21:56:14.838Z,19.28
2023-03-05T21:57:15.062Z,19.28
2023-03-05T21:58:15.028Z,19.28
2023-03-05T21:59:15.121Z,19.28
2023-03-05T22:00:15.203Z,19.27
2023-03-05T22:01:15.368Z,19.27
2023-03-05T22:02:16.178Z,19.27
2023-03-05T22:03:15.471Z,19.27
2023-03-05T22:04:15.607Z,19.27
2023-03-05T22:05:15.647Z,19.26
2023-03-05T22:06:15.724Z,19.27
2023-03-05T22:07:15.815Z,19.26
2023-03-05T22:08:15.896Z,19.26
2023-03-05T22:09:15.986Z,19.26
2023-03-05T22:10:16.072Z,19.26
2023-03-05T22:11:16.169Z,19.25
2023-03-05T22:12:16.253Z,19.25
2023-03-05T22:13:16.342Z,19.25
2023-03-05T22:14:17.966Z,19.25
2023-03-05T22:15:16.509Z,19.24
2023-03-05T22:16:16.640Z,19.24
2023-03-05T22:17:16.698Z,19.24
2023-03-05T22:18:16.805Z,19.24
2023-03-05T22:29:17.771Z,19.23
2023-03-05T22:30:17.875Z,19.22
2023-03-05T22:31:17.985Z,19.23
2023-03-05T22:32:18.172Z,19.22
2023-03-05T22:33:18.121Z,19.21
2023-03-05T22:34:18.210Z,19.22
2023-03-05T22:35:18.344Z,19.21
2023-03-05T22:36:18.400Z,19.21
2023-03-05T22:37:18.479Z,19.20
2023-03-05T22:38:18.688Z,19.20
2023-03-05T22:39:18.660Z,19.19
2023-03-05T22:40:18.829Z,19.20
2023-03-05T22:41:18.932Z,19.20
2023-03-05T22:42:19.003Z,19.20
2023-03-05T22:43:19.039Z,19.19
2023-03-05T22:44:19.113Z,19.20
2023-03-05T22:45:19.219Z,19.19
2023-03-05T22:46:19.382Z,19.19
2023-03-05T22:47:19.383Z,19.19
2023-03-05T22:48:19.479Z,19.19
2023-03-05T22:49:19.566Z,19.19
2023-03-05T22:50:19.660Z,19.18
2023-03-05T22:51:19.765Z,19.19
2023-03-05T22:52:19.832Z,19.18
2023-03-05T22:54:20.039Z,19.17
